Time;durP1;ratioP1;P1;durP2;ratioP2;P2;SDS_P1;SDS_P2;PMS_P1;PMS_P2;Temp;Humidity;BMP_temperature;BMP_pressure;BME280_temperature;BME280_humidity;BME280_pressure;Samples;Min_cycle;Max_cycle;Signal;HPM_P1;HPM_P2
2023/01/09 00:00:36;;;;;;;1.90;1.13;;;6.30;99.90;;;;;;10335033;23;20109;-81
2023/01/09 00:04:37;;;;;;;0.93;0.70;;;6.20;99.90;;;;;;10333887;22;20004;-81
2023/01/09 00:08:37;;;;;;;2.35;0.95;;;6.20;99.90;;;;;;10334332;23;20008;-82
2023/01/09 00:12:38;;;;;;;0.90;0.55;;;6.30;99.90;;;;;;10334240;22;20464;-82
2023/01/09 00:16:39;;;;;;;1.00;0.52;;;6.30;99.90;;;;;;10334122;23;20438;-82
2023/01/09 00:20:39;;;;;;;1.08;0.80;;;6.40;99.90;;;;;;10334448;23;20030;-82
2023/01/09 00:24:40;;;;;;;0.65;0.63;;;6.40;99.90;;;;;;10334023;22;20012;-82
2023/01/09 00:28:40;;;;;;;1.02;0.50;;;6.40;99.90;;;;;;10335861;23;20024;-82
2023/01/09 00:32:41;;;;;;;1.13;0.80;;;6.30;99.90;;;;;;10334497;22;20342;-82
2023/01/09 00:36:41;;;;;;;2.00;0.82;;;6.40;99.90;;;;;;10334676;23;20045;-82
2023/01/09 00:40:42;;;;;;;0.90;0.63;;;6.50;99.90;;;;;;10335440;23;20427;-82
2023/01/09 00:44:52;;;;;;;1.90;0.98;;;6.50;99.90;;;;;;10333730;22;20011;-82
2023/01/09 00:48:53;;;;;;;1.02;0.70;;;6.40;99.90;;;;;;10333859;23;20004;-82
2023/01/09 00:52:59;;;;;;;1.10;0.73;;;6.50;99.90;;;;;;10333544;22;20074;-82
2023/01/09 00:56:59;;;;;;;0.73;0.60;;;6.40;99.90;;;;;;10333666;23;20004;-82
2023/01/09 01:01:00;;;;;;;1.00;0.70;;;6.50;99.90;;;;;;10333900;23;20015;-83
2023/01/09 01:09:20;;;;;;;0.82;0.60;;;6.40;99.90;;;;;;10334891;23;20018;-83
2023/01/09 01:13:20;;;;;;;1.80;0.93;;;6.40;99.90;;;;;;10332722;22;20316;-83
2023/01/09 01:17:21;;;;;;;0.98;0.75;;;6.50;99.90;;;;;;10332929;23;20008;-83
2023/01/09 01:21:22;;;;;;;6.95;0.85;;;6.50;99.90;;;;;;10333095;23;20015;-82
2023/01/09 01:25:22;;;;;;;1.02;0.60;;;6.50;99.90;;;;;;10332259;22;20007;-82
2023/01/09 01:29:23;;;;;;;0.82;0.60;;;6.60;99.90;;;;;;10333278;23;20094;-83
2023/01/09 01:33:23;;;;;;;1.00;0.82;;;6.50;99.90;;;;;;10334151;22;20350;-83
2023/01/09 01:37:24;;;;;;;0.70;0.40;;;6.50;99.90;;;;;;10333250;23;20000;-83
2023/01/09 01:41:31;;;;;;;1.95;0.68;;;6.60;99.90;;;;;;10333140;23;20016;-83
2023/01/09 01:45:33;;;;;;;4.05;0.60;;;6.60;99.90;;;;;;10332679;22;20015;-83
2023/01/09 01:49:33;;;;;;;1.08;0.68;;;6.50;99.90;;;;;;10334516;23;20004;-83
2023/01/09 01:53:41;;;;;;;1.42;1.00;;;6.60;99.90;;;;;;10332458;22;20012;-83
2023/01/09 01:57:47;;;;;;;0.95;0.75;;;6.60;99.90;;;;;;10332920;23;20640;-83
2023/01/09 02:01:53;;;;;;;1.10;0.73;;;6.60;99.90;;;;;;10332977;23;20011;-83
2023/01/09 02:05:53;;;;;;;1.00;0.75;;;6.60;99.90;;;;;;10332141;22;20027;-83
2023/01/09 02:09:55;;;;;;;1.15;1.00;;;6.50;99.90;;;;;;10333918;23;20004;-83
2023/01/09 02:13:56;;;;;;;1.20;0.90;;;6.30;99.90;;;;;;10346121;22;20015;-82
2023/01/09 02:18:06;;;;;;;0.98;0.70;;;6.30;99.90;;;;;;10394512;22;20046;-82
2023/01/09 02:22:31;;;;;;;0.82;0.63;;;6.40;99.90;;;;;;10396308;22;20334;-82
2023/01/09 02:26:51;;;;;;;0.88;0.60;;;6.40;99.90;;;;;;10347465;22;20004;-84
2023/01/09 02:31:00;;;;;;;1.27;0.90;;;6.40;99.90;;;;;;10344252;23;20087;-83
2023/01/09 02:35:29;;;;;;;0.93;0.73;;;6.30;99.90;;;;;;10343763;22;20015;-83
2023/01/09 02:39:42;;;;;;;1.20;0.90;;;6.30;99.90;;;;;;10341169;23;20012;-83
2023/01/09 02:43:43;;;;;;;0.93;0.65;;;6.40;99.90;;;;;;10346415;22;20011;-81
2023/01/09 02:47:45;;;;;;;1.00;0.70;;;6.50;99.90;;;;;;10344230;23;20012;-82
2023/01/09 02:51:52;;;;;;;0.93;0.52;;;6.50;99.90;;;;;;10343818;23;20031;-82
2023/01/09 02:56:19;;;;;;;0.60;0.43;;;6.50;99.90;;;;;;10344419;22;20015;-83
2023/01/09 03:00:34;;;;;;;0.77;0.57;;;6.50;99.90;;;;;;10345289;22;20071;-81
2023/01/09 03:05:00;;;;;;;1.92;1.00;;;6.50;99.90;;;;;;10344963;22;20001;-82
2023/01/09 03:09:06;;;;;;;2.60;1.45;;;6.50;99.90;;;;;;10343013;23;20645;-81
2023/01/09 03:13:10;;;;;;;1.95;0.90;;;6.40;99.90;;;;;;10342563;22;20011;-82
2023/01/09 03:17:15;;;;;;;2.15;1.30;;;6.40;99.90;;;;;;10341548;23;20549;-82
2023/01/09 03:21:16;;;;;;;1.60;1.40;;;6.40;99.90;;;;;;10340665;23;20000;-81
2023/01/09 03:25:17;;;;;;;1.63;1.20;;;6.30;99.90;;;;;;10342657;22;20004;-83
2023/01/09 03:29:17;;;;;;;1.77;1.25;;;6.40;99.90;;;;;;10342608;23;20040;-81
2023/01/09 03:33:18;;;;;;;2.60;1.50;;;6.40;99.90;;;;;;10342435;22;20019;-81
2023/01/09 03:37:19;;;;;;;2.53;1.73;;;6.40;99.90;;;;;;10342598;23;20434;-81
2023/01/09 03:41:19;;;;;;;1.65;1.42;;;6.30;99.90;;;;;;10344342;23;19996;-83
2023/01/09 03:45:20;;;;;;;3.20;1.70;;;6.40;99.90;;;;;;10344529;22;20000;-82
2023/01/09 03:49:20;;;;;;;1.88;1.23;;;6.50;99.90;;;;;;10344819;23;20008;-81
2023/01/09 03:53:23;;;;;;;2.60;1.63;;;6.50;99.90;;;;;;10345651;22;20639;-82
2023/01/09 03:57:24;;;;;;;3.03;1.98;;;6.40;99.90;;;;;;10343680;23;20076;-82
2023/01/09 04:01:25;;;;;;;2.92;1.98;;;6.50;99.90;;;;;;10344483;23;20134;-81
2023/01/09 04:05:25;;;;;;;1.88;1.40;;;6.50;99.90;;;;;;10345504;22;20004;-82
2023/01/09 04:09:26;;;;;;;3.20;1.85;;;6.50;99.90;;;;;;10343625;23;20446;-83
2023/01/09 04:13:26;;;;;;;1.88;1.55;;;6.60;99.90;;;;;;10344028;22;20087;-82
2023/01/09 04:17:27;;;;;;;0.73;0.52;;;6.50;99.90;;;;;;10344381;23;20000;-81
2023/01/09 04:21:27;;;;;;;1.60;1.23;;;6.60;99.90;;;;;;10343701;23;20023;-82
2023/01/09 04:25:28;;;;;;;1.55;0.90;;;6.50;99.90;;;;;;10341693;22;20095;-81
2023/01/09 04:29:28;;;;;;;1.05;0.77;;;6.50;99.90;;;;;;10342103;23;20353;-82
2023/01/09 04:33:29;;;;;;;0.68;0.40;;;6.30;99.90;;;;;;10342240;22;20004;-81
2023/01/09 04:37:30;;;;;;;0.55;0.30;;;6.20;99.90;;;;;;10340632;23;20000;-81
2023/01/09 04:41:48;;;;;;;0.30;0.30;;;6.20;99.90;;;;;;10343240;23;20004;-82
2023/01/09 04:45:49;;;;;;;0.10;0.10;;;6.10;99.90;;;;;;10345469;22;20363;-82
2023/01/09 04:49:50;;;;;;;0.10;0.10;;;6.10;99.90;;;;;;10347816;23;20079;-81
2023/01/09 04:53:51;;;;;;;0.00;0.00;;;6.00;99.90;;;;;;10345736;22;20015;-81
2023/01/09 04:57:51;;;;;;;0.00;0.00;;;5.90;99.90;;;;;;10346785;23;20004;-81
2023/01/09 05:01:54;;;;;;;0.10;0.00;;;5.90;99.90;;;;;;10345047;23;20004;-83
2023/01/09 05:05:54;;;;;;;0.03;0.00;;;5.80;99.90;;;;;;10344832;22;20008;-82
2023/01/09 05:09:55;;;;;;;0.00;0.00;;;5.70;99.90;;;;;;10343261;23;20015;-82
2023/01/09 05:13:56;;;;;;;0.15;0.10;;;5.70;99.90;;;;;;10342813;22;20015;-82
2023/01/09 05:17:56;;;;;;;0.25;0.08;;;5.60;99.90;;;;;;10340025;23;20027;-82
2023/01/09 05:21:57;;;;;;;0.10;0.10;;;5.50;99.90;;;;;;10342458;23;20000;-82
2023/01/09 05:25:57;;;;;;;0.20;0.10;;;5.50;99.90;;;;;;10340626;22;20032;-82
2023/01/09 05:29:58;;;;;;;0.25;0.20;;;5.50;99.90;;;;;;10343241;23;19996;-80
2023/01/09 05:33:59;;;;;;;0.20;0.20;;;5.50;99.90;;;;;;10340611;22;20005;-81
2023/01/09 05:38:00;;;;;;;0.08;0.08;;;5.50;99.90;;;;;;10340861;23;20055;-82
2023/01/09 05:42:00;;;;;;;0.25;0.10;;;5.50;99.90;;;;;;10339258;23;20095;-79
2023/01/09 05:46:01;;;;;;;0.30;0.20;;;5.50;99.90;;;;;;10339271;22;20027;-81
2023/01/09 05:50:03;;;;;;;0.10;0.10;;;5.50;99.90;;;;;;10342438;23;20000;-79
2023/01/09 05:54:06;;;;;;;0.47;0.28;;;5.50;99.90;;;;;;10342737;22;20358;-82
2023/01/09 05:58:06;;;;;;;0.28;0.15;;;5.50;99.90;;;;;;10339577;23;20005;-81
2023/01/09 06:02:07;;;;;;;0.20;0.20;;;5.50;99.90;;;;;;10339823;23;20011;-81
2023/01/09 06:06:08;;;;;;;3.33;1.60;;;5.50;99.90;;;;;;10338773;22;20010;-81
2023/01/09 06:10:11;;;;;;;0.55;0.45;;;5.40;99.90;;;;;;10335586;23;20011;-80
2023/01/09 06:14:11;;;;;;;0.00;0.00;;;5.30;99.90;;;;;;10336769;22;20074;-80
2023/01/09 06:18:12;;;;;;;0.10;0.10;;;5.20;99.90;;;;;;10334652;23;20005;-80
2023/01/09 06:22:12;;;;;;;0.30;0.20;;;5.30;99.90;;;;;;10336710;23;20469;-81
2023/01/09 06:26:13;;;;;;;0.60;0.28;;;5.10;99.90;;;;;;10334297;22;20004;-81
2023/01/09 06:30:14;;;;;;;0.20;0.15;;;5.20;99.90;;;;;;10336093;23;20438;-81
2023/01/09 06:34:14;;;;;;;0.30;0.20;;;5.10;99.90;;;;;;10333906;22;20008;-80
2023/01/09 06:38:15;;;;;;;0.25;0.20;;;4.90;99.90;;;;;;10333902;23;20014;-81
2023/01/09 06:42:15;;;;;;;0.00;0.00;;;4.90;99.90;;;;;;10336081;23;20000;-81
2023/01/09 06:46:16;;;;;;;0.30;0.20;;;4.90;99.90;;;;;;10334717;22;20000;-81
2023/01/09 06:50:16;;;;;;;0.00;0.00;;;4.90;99.90;;;;;;10335456;23;20026;-80
2023/01/09 06:54:17;;;;;;;0.20;0.10;;;4.90;99.90;;;;;;10333067;22;20004;-81
2023/01/09 06:58:18;;;;;;;0.00;0.00;;;4.90;99.90;;;;;;10332723;22;20076;-81
2023/01/09 07:02:21;;;;;;;0.10;0.10;;;5.00;99.90;;;;;;10334393;23;20094;-80
2023/01/09 07:06:21;;;;;;;0.20;0.10;;;5.00;99.90;;;;;;10335837;22;20027;-80
2023/01/09 07:10:22;;;;;;;0.40;0.20;;;4.90;99.90;;;;;;10336206;23;19996;-80
2023/01/09 07:14:23;;;;;;;4.45;1.52;;;4.80;99.90;;;;;;10335320;22;20016;-80
2023/01/09 07:18:23;;;;;;;0.45;0.20;;;4.60;99.90;;;;;;10336780;23;20006;-79
2023/01/09 07:22:24;;;;;;;0.50;0.40;;;4.60;99.90;;;;;;10337071;23;20008;-80
2023/01/09 07:26:24;;;;;;;0.55;0.32;;;4.60;99.90;;;;;;10335536;22;20438;-79
2023/01/09 07:30:25;;;;;;;0.77;0.30;;;4.60;99.90;;;;;;10335862;23;20008;-79
2023/01/09 07:34:26;;;;;;;0.52;0.35;;;4.70;99.90;;;;;;10335558;22;20623;-79
2023/01/09 07:38:26;;;;;;;0.25;0.20;;;4.80;99.90;;;;;;10337367;22;19992;-79
2023/01/09 07:42:27;;;;;;;1.20;0.35;;;4.90;99.90;;;;;;10337233;23;20019;-79
2023/01/09 07:46:27;;;;;;;0.75;0.40;;;4.80;99.90;;;;;;10338166;22;20023;-79
2023/01/09 07:50:28;;;;;;;0.55;0.35;;;4.60;99.90;;;;;;10339887;23;20014;-80
2023/01/09 07:54:28;;;;;;;0.30;0.30;;;4.50;99.90;;;;;;10338871;22;20438;-80
2023/01/09 07:58:29;;;;;;;0.55;0.30;;;4.40;99.90;;;;;;10338419;23;20050;-80
2023/01/09 08:02:29;;;;;;;0.93;0.40;;;4.30;99.90;;;;;;10338240;23;20509;-81
2023/01/09 08:06:30;;;;;;;1.73;0.60;;;4.20;99.90;;;;;;10338078;22;20059;-80
2023/01/09 08:10:31;;;;;;;0.57;0.30;;;4.10;99.90;;;;;;10338229;23;20059;-79
2023/01/09 08:14:31;;;;;;;1.65;0.38;;;4.10;99.90;;;;;;10348282;22;20012;-83
2023/01/09 08:18:32;;;;;;;0.28;0.20;;;4.10;99.90;;;;;;10384378;22;20004;-81
2023/01/09 08:22:32;;;;;;;0.57;0.17;;;4.20;99.90;;;;;;10387295;22;20000;-82
2023/01/09 08:26:33;;;;;;;0.75;0.32;;;4.40;99.90;;;;;;10344963;22;20066;-81
2023/01/09 08:30:34;;;;;;;0.17;0.13;;;4.50;99.90;;;;;;10335229;23;20406;-81
2023/01/09 08:34:35;;;;;;;2.28;0.50;;;4.70;99.90;;;;;;10334813;22;20016;-82
2023/01/09 08:38:35;;;;;;;2.60;0.50;;;4.80;99.90;;;;;;10335519;23;20418;-82
2023/01/09 08:47:04;;;;;;;4.68;0.52;;;5.00;99.90;;;;;;10336466;22;20068;-80
2023/01/09 08:51:04;;;;;;;0.35;0.20;;;5.00;99.90;;;;;;10334653;23;20353;-82
2023/01/09 08:55:05;;;;;;;0.38;0.20;;;5.10;99.90;;;;;;10333005;22;20004;-82
2023/01/09 08:59:06;;;;;;;0.75;0.20;;;5.20;99.90;;;;;;10332807;23;20007;-81
2023/01/09 09:03:08;;;;;;;1.77;0.43;;;5.10;99.90;;;;;;10333716;23;20008;-82
2023/01/09 09:07:09;;;;;;;0.15;0.15;;;5.20;99.90;;;;;;10331587;22;20296;-82
2023/01/09 09:11:10;;;;;;;0.57;0.25;;;5.30;99.90;;;;;;10333295;23;20074;-81
2023/01/09 09:15:11;;;;;;;0.30;0.20;;;5.50;99.90;;;;;;10331976;22;20016;-82
2023/01/09 09:19:11;;;;;;;1.50;0.30;;;5.50;99.90;;;;;;10334466;23;20078;-82
2023/01/09 09:23:12;;;;;;;0.68;0.35;;;5.60;99.90;;;;;;10334936;23;20011;-81
2023/01/09 09:27:12;;;;;;;0.82;0.22;;;5.70;99.90;;;;;;10334576;22;20015;-82
2023/01/09 09:31:13;;;;;;;0.73;0.20;;;5.70;99.90;;;;;;10333967;23;20004;-81
2023/01/09 09:35:14;;;;;;;0.40;0.22;;;6.00;99.90;;;;;;10334085;22;20011;-82
2023/01/09 09:39:14;;;;;;;0.60;0.20;;;6.50;99.90;;;;;;10336875;22;19996;-82
2023/01/09 09:48:28;;;;;;;2.38;0.28;;;6.90;99.90;;;;;;10337158;23;20019;-82
2023/01/09 09:52:50;;;;;;;0.60;0.13;;;6.80;99.90;;;;;;10337361;23;20000;-82
2023/01/09 09:56:56;;;;;;;0.20;0.20;;;6.50;99.90;;;;;;10334370;22;20458;-82
2023/01/09 10:00:58;;;;;;;1.35;0.20;;;6.60;99.90;;;;;;10335713;22;19997;-81
2023/01/09 10:05:06;;;;;;;0.45;0.13;;;6.70;99.90;;;;;;10334316;22;20008;-82
2023/01/09 10:09:25;;;;;;;0.25;0.25;;;6.80;99.90;;;;;;10335897;23;20000;-81
2023/01/09 10:18:20;;;;;;;2.17;0.55;;;7.40;99.90;;;;;;10336781;23;20246;-82
2023/01/09 10:22:40;;;;;;;1.52;0.40;;;7.40;99.90;;;;;;10334708;23;20000;-81
2023/01/09 10:26:47;;;;;;;2.22;0.40;;;6.80;99.90;;;;;;10334585;22;20100;-81
2023/01/09 10:31:06;;;;;;;0.20;0.20;;;6.60;99.90;;;;;;10337273;23;20011;-81
2023/01/09 10:35:28;;;;;;;0.38;0.28;;;6.40;99.90;;;;;;10336017;22;20251;-81
2023/01/09 10:39:54;;;;;;;2.40;0.50;;;6.30;99.90;;;;;;10339619;23;20004;-82
2023/01/09 10:44:02;;;;;;;0.55;0.20;;;6.30;99.90;;;;;;10338494;22;20016;-82
2023/01/09 10:48:19;;;;;;;1.35;0.22;;;6.40;99.90;;;;;;10337840;23;20066;-81
2023/01/09 10:52:28;;;;;;;1.13;0.30;;;6.50;99.90;;;;;;10338030;23;20082;-82
2023/01/09 10:56:35;;;;;;;4.82;0.60;;;6.50;99.90;;;;;;10340795;22;20007;-81
2023/01/09 11:00:37;;;;;;;0.65;0.40;;;6.60;99.90;;;;;;10340921;23;20390;-82
2023/01/09 11:04:38;;;;;;;0.65;0.20;;;6.60;99.90;;;;;;10340178;22;20057;-82
2023/01/09 11:08:42;;;;;;;2.47;0.43;;;6.60;99.90;;;;;;10337470;23;20019;-82
2023/01/09 11:12:42;;;;;;;0.47;0.20;;;6.60;99.90;;;;;;10340058;23;20096;-82
2023/01/09 11:16:51;;;;;;;0.55;0.25;;;6.80;99.90;;;;;;10339723;22;20024;-82
2023/01/09 11:20:52;;;;;;;1.65;0.32;;;6.90;99.90;;;;;;10340922;23;20074;-82
2023/01/09 11:25:02;;;;;;;2.00;0.32;;;7.20;99.90;;;;;;10338568;22;20035;-83
2023/01/09 11:29:11;;;;;;;0.63;0.20;;;7.60;99.90;;;;;;10339745;23;20008;-82
2023/01/09 11:33:14;;;;;;;1.75;0.28;;;7.60;99.90;;;;;;10341216;23;20012;-82
2023/01/09 11:37:24;;;;;;;1.85;0.40;;;7.40;99.90;;;;;;10333387;22;20091;-82
2023/01/09 11:41:33;;;;;;;0.38;0.20;;;6.90;99.90;;;;;;10334006;23;20087;-81
2023/01/09 11:45:36;;;;;;;1.48;0.25;;;6.70;99.90;;;;;;10335565;22;20008;-81
2023/01/09 11:49:37;;;;;;;1.65;0.28;;;6.60;99.90;;;;;;10334293;23;20004;-80
2023/01/09 11:53:51;;;;;;;2.88;0.30;;;7.00;99.90;;;;;;10333581;22;20451;-81
2023/01/09 11:57:52;;;;;;;0.20;0.20;;;8.20;99.90;;;;;;10334153;23;20505;-82
2023/01/09 12:02:05;;;;;;;0.80;0.47;;;8.10;99.90;;;;;;10334136;23;20004;-81
2023/01/09 12:06:26;;;;;;;0.55;0.10;;;7.80;99.90;;;;;;10332924;22;20011;-82
2023/01/09 12:10:41;;;;;;;0.47;0.35;;;7.70;99.90;;;;;;10333383;23;20008;-82
2023/01/09 12:14:52;;;;;;;1.17;0.35;;;7.70;99.90;;;;;;10331464;22;20107;-81
2023/01/09 12:19:26;;;;;;;1.35;0.30;;;7.60;99.90;;;;;;10332787;23;20498;-81
2023/01/09 12:23:53;;;;;;;1.83;0.50;;;7.40;99.90;;;;;;10333394;22;20011;-81
2023/01/09 12:28:10;;;;;;;0.20;0.20;;;7.40;99.90;;;;;;10332285;23;20012;-81
2023/01/09 12:32:22;;;;;;;0.95;0.30;;;7.50;99.90;;;;;;10332359;23;20036;-82
2023/01/09 12:36:53;;;;;;;2.83;0.75;;;7.60;99.90;;;;;;10328476;22;20460;-81
2023/01/09 12:41:00;;;;;;;1.13;0.32;;;7.90;99.90;;;;;;10332266;23;20007;-81
2023/01/09 12:45:33;;;;;;;1.90;0.98;;;8.00;99.90;;;;;;10331406;22;20108;-81
2023/01/09 12:50:01;;;;;;;1.05;0.30;;;8.00;99.90;;;;;;10332388;23;20333;-81
2023/01/09 12:54:33;;;;;;;0.60;0.30;;;7.90;99.90;;;;;;10331597;22;20012;-81
2023/01/09 12:58:57;;;;;;;1.38;0.38;;;7.80;99.90;;;;;;10366200;22;20020;-82
2023/01/09 13:03:19;;;;;;;2.25;0.45;;;8.00;99.90;;;;;;10339616;23;20004;-83
2023/01/09 13:07:29;;;;;;;3.17;0.32;;;8.30;99.90;;;;;;10340130;22;20000;-83
2023/01/09 13:12:07;;;;;;;1.27;0.30;;;8.70;99.90;;;;;;10339692;23;20423;-82
2023/01/09 13:16:27;;;;;;;1.02;0.55;;;8.90;99.90;;;;;;10344678;22;20005;-83
2023/01/09 13:20:36;;;;;;;0.50;0.17;;;9.00;99.90;;;;;;10340032;23;20015;-82
2023/01/09 13:25:00;;;;;;;1.83;0.28;;;8.80;99.90;;;;;;10342720;22;20011;-82
2023/01/09 13:29:15;;;;;;;0.75;0.38;;;8.60;99.90;;;;;;10344372;23;20067;-82
2023/01/09 13:33:25;;;;;;;0.13;0.10;;;8.30;99.90;;;;;;10361982;23;20008;-81
2023/01/09 13:37:29;;;;;;;2.97;0.57;;;8.10;99.90;;;;;;10329166;23;20004;-82
2023/01/09 13:45:51;;;;;;;3.50;0.45;;;8.20;99.90;;;;;;10332470;22;20015;-81
2023/01/09 13:50:00;;;;;;;0.10;0.10;;;8.20;99.90;;;;;;10331405;23;20398;-82
2023/01/09 13:54:00;;;;;;;0.85;0.45;;;7.80;99.90;;;;;;10330814;22;20016;-81
2023/01/09 13:58:12;;;;;;;0.20;0.20;;;7.80;99.90;;;;;;10331668;23;20147;-81
2023/01/09 14:02:35;;;;;;;2.60;0.20;;;7.80;99.90;;;;;;10331179;23;20009;-82
2023/01/09 14:06:36;;;;;;;0.82;0.20;;;7.90;99.90;;;;;;10331386;22;20027;-81
2023/01/09 14:10:48;;;;;;;0.85;0.30;;;7.70;99.90;;;;;;10331751;22;20004;-81
2023/01/09 14:14:52;;;;;;;0.30;0.20;;;7.20;99.90;;;;;;10331421;22;20422;-82
2023/01/09 14:19:02;;;;;;;0.40;0.40;;;6.70;99.90;;;;;;10331016;23;20503;-81
2023/01/09 14:23:03;;;;;;;0.20;0.10;;;6.40;99.90;;;;;;10332582;22;20008;-81
2023/01/09 14:27:04;;;;;;;2.17;0.38;;;6.30;99.90;;;;;;10330558;22;20243;-81
2023/01/09 14:31:07;;;;;;;0.63;0.30;;;6.20;99.90;;;;;;10330684;23;20008;-81
2023/01/09 14:35:26;;;;;;;0.47;0.32;;;6.20;99.90;;;;;;10331962;22;19996;-81
2023/01/09 14:39:30;;;;;;;0.38;0.32;;;6.30;99.90;;;;;;10332555;22;20008;-81
2023/01/09 14:43:59;;;;;;;1.88;0.30;;;6.50;99.90;;;;;;10330162;22;20015;-81
2023/01/09 14:48:04;;;;;;;0.93;0.20;;;6.50;99.90;;;;;;10329762;23;20012;-81
2023/01/09 14:52:26;;;;;;;0.32;0.22;;;6.40;99.90;;;;;;10330935;23;20103;-82
2023/01/09 14:56:29;;;;;;;0.40;0.30;;;6.40;99.90;;;;;;10330435;22;20324;-82
2023/01/09 15:00:30;;;;;;;0.52;0.32;;;6.50;99.90;;;;;;10330597;23;20008;-81
2023/01/09 15:04:35;;;;;;;0.45;0.20;;;6.30;99.90;;;;;;10329370;22;20497;-81
2023/01/09 15:08:35;;;;;;;0.10;0.10;;;6.30;99.90;;;;;;10330027;23;20000;-81
2023/01/09 15:12:36;;;;;;;0.52;0.30;;;6.30;99.90;;;;;;10324713;23;19996;-82
2023/01/09 15:16:36;;;;;;;1.45;0.77;;;6.20;99.90;;;;;;10329879;22;20019;-82
2023/01/09 15:20:37;;;;;;;0.32;0.20;;;6.20;99.90;;;;;;10330902;23;20019;-81
2023/01/09 15:24:37;;;;;;;0.85;0.30;;;5.90;99.90;;;;;;10331976;22;20011;-81
2023/01/09 15:28:42;;;;;;;1.00;0.35;;;5.60;99.90;;;;;;10334588;23;20231;-81
2023/01/09 15:32:45;;;;;;;1.08;0.45;;;5.40;99.90;;;;;;10333508;23;20008;-81
2023/01/09 15:36:48;;;;;;;4.05;0.88;;;5.40;99.90;;;;;;10333352;22;20000;-81
2023/01/09 15:41:09;;;;;;;3.63;0.60;;;5.40;99.90;;;;;;10333449;23;20180;-82
2023/01/09 15:45:22;;;;;;;3.28;1.17;;;5.40;99.90;;;;;;10332802;22;20012;-82
2023/01/09 15:49:23;;;;;;;4.05;1.40;;;5.10;99.90;;;;;;10333378;23;20018;-82
2023/01/09 15:53:26;;;;;;;2.67;1.02;;;4.80;99.90;;;;;;10334287;22;19996;-81
2023/01/09 15:57:29;;;;;;;2.00;0.40;;;4.50;99.90;;;;;;10332420;23;20011;-81
2023/01/09 16:01:38;;;;;;;2.35;1.25;;;4.40;99.90;;;;;;10332380;23;20363;-81
2023/01/09 16:05:46;;;;;;;2.10;1.25;;;4.30;99.90;;;;;;10332507;22;20043;-81
2023/01/09 16:09:48;;;;;;;1.13;0.77;;;4.40;99.90;;;;;;10334104;22;20011;-81
2023/01/09 16:13:49;;;;;;;0.40;0.30;;;4.40;99.90;;;;;;10331515;22;20046;-81
2023/01/09 16:18:12;;;;;;;10.15;4.40;;;4.60;99.90;;;;;;10330581;23;20004;-81
2023/01/09 16:22:34;;;;;;;4.10;1.33;;;4.90;99.90;;;;;;10333560;23;20003;-82
2023/01/09 16:26:35;;;;;;;8.73;1.80;;;5.00;99.90;;;;;;10331653;22;20004;-81
2023/01/09 16:30:38;;;;;;;8.18;3.15;;;5.10;99.90;;;;;;10333232;23;20355;-82
2023/01/09 16:34:42;;;;;;;3.50;1.52;;;5.00;99.90;;;;;;10335476;22;20031;-81
2023/01/09 16:38:44;;;;;;;1.80;1.17;;;4.80;99.90;;;;;;10336666;23;20390;-81
2023/01/09 16:43:00;;;;;;;1.85;0.38;;;4.60;99.90;;;;;;10337191;23;20043;-81
2023/01/09 16:47:00;;;;;;;2.00;1.20;;;4.40;99.90;;;;;;10335156;22;20015;-81
2023/01/09 16:51:01;;;;;;;4.07;2.42;;;4.20;99.90;;;;;;10335212;23;20415;-81
2023/01/09 16:55:01;;;;;;;2.42;1.50;;;4.00;99.90;;;;;;10334801;22;20438;-82
2023/01/09 16:59:02;;;;;;;3.00;1.70;;;3.90;99.90;;;;;;10336029;23;20001;-81
2023/01/09 17:03:03;;;;;;;2.90;1.20;;;3.90;99.90;;;;;;10336094;23;20059;-81
2023/01/09 17:07:03;;;;;;;5.47;2.10;;;3.90;99.90;;;;;;10334575;22;20067;-82
2023/01/09 17:11:04;;;;;;;0.55;0.55;;;3.80;99.90;;;;;;10335496;23;20099;-81
2023/01/09 17:15:05;;;;;;;0.25;0.17;;;3.80;99.90;;;;;;10336368;22;20412;-81
2023/01/09 17:19:05;;;;;;;3.90;1.00;;;3.70;99.90;;;;;;10335103;23;20569;-82
2023/01/09 17:23:06;;;;;;;1.10;0.50;;;3.70;99.90;;;;;;10336870;23;20009;-82
2023/01/09 17:31:29;;;;;;;1.15;0.60;;;3.50;99.90;;;;;;10336770;23;20019;-81
2023/01/09 17:35:29;;;;;;;0.55;0.38;;;3.40;99.90;;;;;;10333640;22;20027;-82
2023/01/09 17:39:30;;;;;;;3.95;0.88;;;3.40;99.90;;;;;;10334217;23;19997;-82
2023/01/09 17:43:31;;;;;;;2.38;0.60;;;3.30;99.90;;;;;;10333470;22;20004;-81
2023/01/09 17:47:32;;;;;;;5.70;1.55;;;3.20;99.90;;;;;;10335696;23;20015;-81
2023/01/09 17:51:33;;;;;;;1.55;0.50;;;3.40;99.90;;;;;;10336474;23;20004;-82
2023/01/09 17:55:33;;;;;;;2.05;0.52;;;3.40;99.90;;;;;;10335532;22;19996;-82
2023/01/09 17:59:34;;;;;;;2.13;0.70;;;3.40;99.90;;;;;;10337331;23;20010;-81
2023/01/09 18:03:34;;;;;;;2.70;0.60;;;3.30;99.90;;;;;;10336787;22;20012;-82
2023/01/09 18:07:35;;;;;;;0.80;0.50;;;3.20;99.90;;;;;;10336423;23;20004;-82
2023/01/09 18:11:35;;;;;;;1.05;0.43;;;3.30;99.90;;;;;;10335695;23;20012;-82
2023/01/09 18:15:38;;;;;;;0.47;0.43;;;3.30;99.90;;;;;;10336329;22;20015;-81
2023/01/09 18:19:39;;;;;;;0.88;0.45;;;3.20;99.90;;;;;;10336515;23;20427;-81
2023/01/09 18:23:39;;;;;;;0.90;0.40;;;3.20;99.90;;;;;;10334170;22;20018;-82
2023/01/09 18:27:40;;;;;;;1.35;0.50;;;3.30;99.90;;;;;;10335311;23;20000;-82
2023/01/09 18:31:41;;;;;;;0.73;0.52;;;3.50;99.90;;;;;;10336754;23;20004;-81
2023/01/09 18:35:43;;;;;;;1.08;0.50;;;3.70;99.90;;;;;;10336397;22;20067;-82
2023/01/09 18:39:44;;;;;;;0.50;0.25;;;3.70;99.90;;;;;;10337986;23;20004;-81
2023/01/09 18:43:51;;;;;;;0.57;0.38;;;3.50;99.90;;;;;;10339264;22;20094;-81
2023/01/09 18:47:51;;;;;;;0.75;0.50;;;3.40;99.90;;;;;;10339167;23;20008;-82
2023/01/09 18:51:52;;;;;;;1.67;0.55;;;3.30;99.90;;;;;;10338080;23;19996;-82
2023/01/09 18:55:53;;;;;;;1.00;0.70;;;3.30;99.90;;;;;;10335432;22;20019;-82
2023/01/09 18:59:53;;;;;;;4.57;1.63;;;3.20;99.90;;;;;;10335400;23;20000;-83
2023/01/09 19:03:55;;;;;;;0.65;0.45;;;3.30;99.90;;;;;;10335130;22;20015;-83
2023/01/09 19:07:55;;;;;;;5.20;1.75;;;3.40;99.90;;;;;;10336275;23;20000;-84
2023/01/09 19:11:56;;;;;;;1.38;0.55;;;3.30;99.90;;;;;;10337221;23;20008;-83
2023/01/09 19:15:57;;;;;;;1.83;0.80;;;3.50;99.90;;;;;;10335738;22;20000;-83
2023/01/09 19:19:58;;;;;;;0.32;0.32;;;3.40;99.90;;;;;;10336367;23;20111;-83
2023/01/09 19:23:58;;;;;;;0.68;0.30;;;3.60;99.90;;;;;;10335176;22;20590;-81
2023/01/09 19:28:02;;;;;;;0.60;0.30;;;3.60;99.90;;;;;;10339677;23;20004;-80
2023/01/09 19:32:04;;;;;;;0.93;0.45;;;3.70;99.90;;;;;;10343900;23;20018;-81
2023/01/09 19:36:05;;;;;;;1.45;0.65;;;3.60;99.90;;;;;;10348022;22;20008;-81
2023/01/09 19:40:05;;;;;;;0.40;0.40;;;3.70;99.90;;;;;;10352793;23;20004;-80
2023/01/09 19:44:06;;;;;;;0.73;0.30;;;3.70;99.90;;;;;;10354935;22;20012;-80
2023/01/09 19:48:07;;;;;;;1.70;0.57;;;3.70;99.90;;;;;;10357796;23;20083;-80
2023/01/09 19:52:07;;;;;;;0.50;0.50;;;3.60;99.90;;;;;;10361031;23;20035;-80
2023/01/09 19:56:11;;;;;;;0.50;0.50;;;3.60;99.90;;;;;;10358436;22;20097;-80
2023/01/09 20:00:13;;;;;;;0.82;0.50;;;3.60;99.90;;;;;;10345100;23;20012;-80
2023/01/09 20:04:14;;;;;;;1.10;0.70;;;3.50;99.90;;;;;;10346596;22;20027;-80
2023/01/09 20:08:16;;;;;;;0.50;0.50;;;3.50;99.90;;;;;;10345559;23;20019;-80
2023/01/09 20:12:16;;;;;;;0.55;0.43;;;3.50;99.90;;;;;;10346517;23;20040;-80
2023/01/09 20:16:20;;;;;;;0.68;0.45;;;3.50;99.90;;;;;;10341766;22;20008;-80
2023/01/09 20:20:20;;;;;;;0.90;0.65;;;3.60;99.90;;;;;;10338972;23;20458;-80
2023/01/09 20:24:21;;;;;;;0.30;0.30;;;3.60;99.90;;;;;;10337015;22;20008;-81
2023/01/09 20:28:22;;;;;;;0.75;0.63;;;3.60;99.90;;;;;;10341182;23;20402;-80
2023/01/09 20:32:22;;;;;;;0.77;0.60;;;3.60;99.90;;;;;;10338704;23;20014;-81
2023/01/09 20:36:29;;;;;;;2.45;0.95;;;3.60;99.90;;;;;;10338375;22;20016;-81
2023/01/09 20:40:30;;;;;;;1.02;0.70;;;3.60;99.90;;;;;;10338019;23;20023;-81
2023/01/09 20:44:30;;;;;;;2.47;0.63;;;3.50;99.90;;;;;;10338167;22;20008;-82
2023/01/09 20:48:31;;;;;;;0.85;0.50;;;3.50;99.90;;;;;;10341288;23;20088;-81
2023/01/09 20:52:32;;;;;;;0.98;0.77;;;3.50;99.90;;;;;;10339376;23;20008;-81
2023/01/09 20:56:32;;;;;;;0.93;0.63;;;3.40;99.90;;;;;;10338147;22;20008;-81
2023/01/09 21:00:33;;;;;;;0.82;0.55;;;3.30;99.90;;;;;;10339115;23;20008;-82
2023/01/09 21:04:33;;;;;;;2.60;0.70;;;3.40;99.90;;;;;;10338843;22;20063;-81
2023/01/09 21:08:34;;;;;;;1.17;0.70;;;3.40;99.90;;;;;;10338037;23;20042;-81
2023/01/09 21:12:36;;;;;;;0.75;0.50;;;3.40;99.90;;;;;;10338232;23;20043;-81
2023/01/09 21:16:36;;;;;;;0.90;0.70;;;3.30;99.90;;;;;;10337953;22;20012;-81
2023/01/09 21:20:38;;;;;;;0.90;0.57;;;3.20;99.90;;;;;;10336732;23;20024;-81
2023/01/09 21:24:39;;;;;;;0.82;0.57;;;3.30;99.90;;;;;;10339187;22;20488;-81
2023/01/09 21:28:47;;;;;;;0.50;0.50;;;3.40;99.90;;;;;;10338314;23;20014;-82
2023/01/09 21:32:47;;;;;;;0.95;0.65;;;3.50;99.90;;;;;;10336027;23;20004;-81
2023/01/09 21:36:48;;;;;;;0.98;0.80;;;3.60;99.90;;;;;;10337551;22;19996;-81
2023/01/09 21:40:50;;;;;;;1.27;0.45;;;3.60;99.90;;;;;;10336784;23;20008;-81